createdAt,value
2022-10-13T00:01:09.561Z,3.93
2022-10-13T00:03:37.605Z,3.97
2022-10-13T00:06:09.316Z,4.40
2022-10-13T00:08:38.091Z,3.70
2022-10-13T00:11:11.696Z,4.37
2022-10-13T00:13:39.707Z,4.00
2022-10-13T00:16:08.188Z,4.63
2022-10-13T00:18:35.707Z,4.43
2022-10-13T00:21:09.657Z,4.40
2022-10-13T00:23:38.560Z,4.30
2022-10-13T00:26:09.063Z,3.90
2022-10-13T00:28:37.000Z,3.47
2022-10-13T00:31:05.436Z,4.13
2022-10-13T00:33:32.920Z,4.00
2022-10-13T00:36:00.375Z,4.13
2022-10-13T00:38:29.234Z,4.17
2022-10-13T00:40:57.274Z,4.30
2022-10-13T00:43:27.176Z,3.63
2022-10-13T00:45:55.426Z,4.37
2022-10-13T00:48:25.773Z,4.00
2022-10-13T00:50:54.425Z,4.20
2022-10-13T00:53:25.491Z,3.70
2022-10-13T00:55:55.298Z,4.00
2022-10-13T00:58:26.353Z,4.17
2022-10-13T01:00:54.532Z,3.57
2022-10-13T01:03:22.768Z,4.10
2022-10-13T01:05:52.454Z,3.47
2022-10-13T01:08:21.781Z,3.97
2022-10-13T01:10:59.787Z,3.87
2022-10-13T01:13:35.346Z,4.20
2022-10-13T01:16:14.657Z,4.07
2022-10-13T01:18:47.609Z,3.83
2022-10-13T01:21:25.733Z,4.07
2022-10-13T01:24:26.579Z,4.20
2022-10-13T01:27:22.626Z,4.13
2022-10-13T01:30:20.123Z,4.50
2022-10-13T01:33:11.275Z,4.43
2022-10-13T01:35:50.324Z,4.23
2022-10-13T01:38:27.577Z,4.20
2022-10-13T01:41:03.613Z,4.27
2022-10-13T01:43:36.653Z,4.67
2022-10-13T01:46:10.094Z,4.77
2022-10-13T01:48:40.358Z,4.00
2022-10-13T01:51:10.411Z,5.00
2022-10-13T01:53:38.757Z,4.97
2022-10-13T01:56:06.933Z,4.40
2022-10-13T01:58:37.134Z,4.37
2022-10-13T02:01:20.206Z,4.23
2022-10-13T02:03:57.129Z,3.83
2022-10-13T02:06:32.053Z,4.70
2022-10-13T02:09:06.016Z,3.50
2022-10-13T02:11:33.568Z,4.00
2022-10-13T02:14:06.632Z,4.40
2022-10-13T02:16:41.004Z,4.73
2022-10-13T02:19:10.558Z,4.43
2022-10-13T02:21:38.711Z,4.33
2022-10-13T02:24:07.606Z,3.97
2022-10-13T02:26:36.884Z,3.70
2022-10-13T02:29:10.743Z,4.50
2022-10-13T02:31:40.467Z,4.90
2022-10-13T02:34:08.395Z,3.90
2022-10-13T02:36:37.777Z,4.00
2022-10-13T02:39:05.730Z,3.43
2022-10-13T02:41:33.206Z,4.43
2022-10-13T02:44:00.716Z,4.23
2022-10-13T02:46:34.815Z,4.20
2022-10-13T02:49:03.611Z,4.53
2022-10-13T02:51:32.449Z,3.83
2022-10-13T02:54:01.597Z,4.10
2022-10-13T02:56:29.030Z,3.90
2022-10-13T02:58:56.491Z,3.60
2022-10-13T03:01:24.076Z,3.73
2022-10-13T03:03:51.515Z,4.47
2022-10-13T03:06:47.014Z,3.70
2022-10-13T03:09:14.560Z,4.10
2022-10-13T03:11:42.420Z,4.03
2022-10-13T03:14:09.925Z,3.90
2022-10-13T03:16:37.442Z,4.07
2022-10-13T03:19:10.745Z,4.03
2022-10-13T03:21:40.243Z,3.57
2022-10-13T03:24:08.107Z,4.40
2022-10-13T03:26:35.863Z,4.57
2022-10-13T03:29:03.539Z,4.13
2022-10-13T03:31:31.409Z,4.17
2022-10-13T03:34:03.038Z,4.50
2022-10-13T03:36:30.912Z,4.00
2022-10-13T03:38:59.704Z,4.23
2022-10-13T03:41:27.148Z,4.10
2022-10-13T03:43:55.192Z,4.73
2022-10-13T03:46:23.448Z,4.40
2022-10-13T03:48:50.906Z,4.07
2022-10-13T03:51:21.681Z,4.20
2022-10-13T03:53:53.772Z,4.60
2022-10-13T03:56:25.971Z,4.53
2022-10-13T03:58:55.382Z,4.00
2022-10-13T04:01:25.162Z,4.33
2022-10-13T04:03:59.619Z,4.17
2022-10-13T04:06:28.128Z,3.93
2022-10-13T04:08:56.455Z,4.37
2022-10-13T04:11:25.256Z,4.20
2022-10-13T04:13:56.626Z,4.50
2022-10-13T04:16:25.884Z,4.53
2022-10-13T04:18:56.504Z,4.43
2022-10-13T04:21:24.508Z,3.87
2022-10-13T04:23:52.204Z,4.10
2022-10-13T04:26:22.647Z,3.97
2022-10-13T04:28:53.190Z,4.03
2022-10-13T04:31:21.967Z,4.30
2022-10-13T04:33:50.019Z,3.97
2022-10-13T04:36:18.642Z,5.17
2022-10-13T04:38:47.847Z,5.17
2022-10-13T04:41:17.419Z,4.80
2022-10-13T04:43:48.446Z,5.27
2022-10-13T04:46:19.397Z,5.00
2022-10-13T04:48:47.383Z,5.13
2022-10-13T04:51:16.741Z,5.00
2022-10-13T04:53:44.532Z,5.03
2022-10-13T04:56:18.454Z,4.47
2022-10-13T04:58:54.330Z,4.13
2022-10-13T05:01:28.832Z,4.23
2022-10-13T05:04:01.211Z,4.50
2022-10-13T05:06:48.623Z,4.33
2022-10-13T05:09:27.252Z,4.90
2022-10-13T05:11:57.706Z,4.70
2022-10-13T05:14:25.943Z,4.40
2022-10-13T05:16:58.166Z,4.77
2022-10-13T05:19:26.598Z,3.93
2022-10-13T05:21:57.610Z,4.27
2022-10-13T05:24:37.429Z,5.70
2022-10-13T05:27:14.153Z,4.73
2022-10-13T05:29:48.153Z,4.00
2022-10-13T05:32:31.064Z,4.17
2022-10-13T05:35:00.108Z,4.60
2022-10-13T05:37:28.467Z,4.93
2022-10-13T05:39:59.429Z,4.83
2022-10-13T05:42:36.383Z,3.13
2022-10-13T05:45:04.965Z,3.17
2022-10-13T05:47:35.281Z,3.53
2022-10-13T05:50:04.693Z,3.97
2022-10-13T05:52:35.241Z,5.00
2022-10-13T05:55:06.756Z,5.10
2022-10-13T05:57:41.606Z,4.23
2022-10-13T06:00:11.768Z,5.50
2022-10-13T06:02:49.876Z,4.20
2022-10-13T06:05:21.047Z,3.70
2022-10-13T06:07:54.816Z,4.13
2022-10-13T06:10:22.805Z,2.33
2022-10-13T06:12:50.588Z,4.43
2022-10-13T06:15:19.001Z,4.00
2022-10-13T06:17:48.102Z,4.33
2022-10-13T06:20:16.584Z,5.07
2022-10-13T06:22:44.876Z,4.77
2022-10-13T06:25:15.260Z,4.30
2022-10-13T06:27:43.582Z,4.47
2022-10-13T06:30:13.504Z,4.43
2022-10-13T06:32:45.347Z,4.67
2022-10-13T06:35:20.304Z,5.03
2022-10-13T06:37:48.751Z,4.93
2022-10-13T06:40:17.513Z,4.17
2022-10-13T06:42:51.028Z,4.83
2022-10-13T06:45:23.461Z,4.67
2022-10-13T06:47:55.544Z,4.10
2022-10-13T06:50:39.416Z,4.63
2022-10-13T06:53:11.045Z,4.50
2022-10-13T06:55:42.294Z,5.37
2022-10-13T06:58:12.364Z,5.33
2022-10-13T07:00:43.122Z,4.93
2022-10-13T07:03:12.512Z,5.30
2022-10-13T07:05:44.637Z,4.70
2022-10-13T07:08:13.446Z,4.20
2022-10-13T07:10:42.810Z,4.40
2022-10-13T07:13:11.446Z,4.50
2022-10-13T07:15:45.708Z,5.30
2022-10-13T07:18:39.788Z,5.67
2022-10-13T07:30:06.726Z,5.47
2022-10-13T07:52:26.073Z,4.67
2022-10-13T07:55:36.796Z,5.47
2022-10-13T07:58:23.929Z,6.03
2022-10-13T08:01:05.525Z,5.17
2022-10-13T08:03:48.951Z,4.97
2022-10-13T08:10:35.309Z,5.93
2022-10-13T08:13:12.461Z,5.63
2022-10-13T08:16:17.042Z,5.50
2022-10-13T08:22:45.158Z,5.27
2022-10-13T08:25:18.855Z,6.33
2022-10-13T08:27:51.948Z,5.87
2022-10-13T08:30:21.824Z,5.93
2022-10-13T08:32:53.342Z,5.90
2022-10-13T08:35:23.625Z,6.73
2022-10-13T08:37:52.280Z,6.47
2022-10-13T08:40:23.383Z,6.73
2022-10-13T08:42:56.732Z,6.17
2022-10-13T08:45:47.677Z,6.57
2022-10-13T08:48:22.874Z,6.17
2022-10-13T08:50:53.923Z,6.00
2022-10-13T08:53:28.614Z,6.20
2022-10-13T08:55:59.898Z,6.83
2022-10-13T08:58:31.326Z,6.63
2022-10-13T09:01:11.120Z,6.03
2022-10-13T09:03:48.979Z,6.50
2022-10-13T09:06:21.989Z,6.90
2022-10-13T09:08:54.686Z,5.67
2022-10-13T09:11:23.541Z,6.53
2022-10-13T09:13:57.897Z,6.47
2022-10-13T09:16:34.815Z,6.70
2022-10-13T09:19:22.712Z,6.47
2022-10-13T09:21:52.539Z,6.63
2022-10-13T09:24:22.500Z,6.50
2022-10-13T09:26:52.620Z,6.57
2022-10-13T09:29:26.467Z,6.37
2022-10-13T09:32:08.190Z,6.47
2022-10-13T09:34:37.113Z,6.27
2022-10-13T09:37:19.025Z,6.53
2022-10-13T09:39:47.337Z,6.03
2022-10-13T09:42:24.275Z,6.50
2022-10-13T09:45:00.908Z,6.30
2022-10-13T09:47:33.299Z,6.30
2022-10-13T09:50:17.138Z,6.70
2022-10-13T09:52:50.824Z,7.23
2022-10-13T09:55:33.188Z,7.53
2022-10-13T09:58:07.120Z,6.57
2022-10-13T10:00:40.916Z,7.43
2022-10-13T10:03:38.151Z,6.70
2022-10-13T10:14:10.376Z,6.90
2022-10-13T10:16:47.303Z,6.70
2022-10-13T10:37:14.893Z,7.00
2022-10-13T10:40:05.266Z,7.80
2022-10-13T10:43:09.699Z,7.77
2022-10-13T10:45:46.761Z,8.17
2022-10-13T10:48:23.822Z,7.13
2022-10-13T10:51:07.765Z,7.40
2022-10-13T10:53:50.826Z,7.97
2022-10-13T10:56:33.190Z,7.70
2022-10-13T10:59:20.531Z,7.73
2022-10-13T11:01:54.631Z,7.27
2022-10-13T11:04:41.559Z,7.30
2022-10-13T11:07:38.935Z,6.40
2022-10-13T11:10:22.731Z,6.90
2022-10-13T11:13:31.497Z,7.33
2022-10-13T11:16:30.177Z,6.53
2022-10-13T11:19:06.078Z,6.97
2022-10-13T11:22:16.534Z,6.97
2022-10-13T12:08:40.570Z,7.40
2022-10-13T12:23:41.974Z,6.20
2022-10-13T14:12:27.427Z,6.30
2022-10-13T14:15:28.824Z,6.27
2022-10-13T14:39:13.416Z,5.77
2022-10-13T15:55:05.482Z,6.93
2022-10-13T15:57:40.354Z,6.40
2022-10-13T16:00:33.726Z,6.17
2022-10-13T16:04:11.765Z,6.77
2022-10-13T16:06:41.023Z,6.07
2022-10-13T16:13:13.464Z,7.30
2022-10-13T16:24:22.751Z,8.87
2022-10-13T16:26:50.237Z,7.67
2022-10-13T16:29:17.848Z,7.83
2022-10-13T16:31:45.434Z,7.67
2022-10-13T16:34:12.864Z,7.93
2022-10-13T16:36:40.378Z,8.17
2022-10-13T16:39:07.906Z,8.53
2022-10-13T16:41:38.818Z,8.03
2022-10-13T16:44:06.657Z,8.10
2022-10-13T16:46:34.254Z,8.77
2022-10-13T16:49:01.969Z,8.43
2022-10-13T16:51:29.872Z,8.30
2022-10-13T16:54:03.920Z,8.30
2022-10-13T16:56:32.476Z,8.37
2022-10-13T16:59:02.965Z,8.53
2022-10-13T17:01:32.423Z,8.40
2022-10-13T17:04:00.424Z,8.13
2022-10-13T17:06:29.681Z,8.90
2022-10-13T17:08:58.340Z,10.37
2022-10-13T17:11:27.808Z,9.13
2022-10-13T17:13:57.518Z,9.07
2022-10-13T17:16:26.947Z,8.50
2022-10-13T17:18:54.475Z,9.07
2022-10-13T17:21:22.072Z,8.93
2022-10-13T17:23:50.091Z,8.47
2022-10-13T17:26:19.144Z,8.63
2022-10-13T17:28:46.824Z,8.20
2022-10-13T17:31:16.316Z,8.80
2022-10-13T17:33:46.428Z,9.33
2022-10-13T17:36:16.192Z,9.00
2022-10-13T17:38:43.928Z,7.57
2022-10-13T17:41:12.348Z,9.93
2022-10-13T17:43:48.653Z,9.23
2022-10-13T17:46:35.601Z,8.53
2022-10-13T17:49:06.425Z,8.83
2022-10-13T17:51:34.220Z,8.97
2022-10-13T17:54:02.058Z,8.87
2022-10-13T17:56:30.318Z,10.43
2022-10-13T17:58:57.837Z,9.77
2022-10-13T18:01:28.062Z,9.50
2022-10-13T18:03:57.301Z,10.13
2022-10-13T18:06:35.184Z,9.70
2022-10-13T18:09:06.624Z,9.57
2022-10-13T18:11:34.439Z,9.30
2022-10-13T18:14:03.193Z,10.50
2022-10-13T18:16:30.669Z,10.13
2022-10-13T18:18:58.158Z,9.53
2022-10-13T18:21:27.030Z,9.37
2022-10-13T18:23:56.577Z,10.03
2022-10-13T18:26:25.593Z,9.63
2022-10-13T18:28:53.667Z,10.27
2022-10-13T18:31:23.815Z,9.63
2022-10-13T18:33:51.633Z,10.13
2022-10-13T18:36:21.129Z,10.73
2022-10-13T18:38:48.841Z,11.53
2022-10-13T18:41:19.028Z,11.67
2022-10-13T18:43:46.559Z,12.30
2022-10-13T18:46:16.297Z,12.10
2022-10-13T18:48:45.548Z,12.17
2022-10-13T18:51:14.779Z,12.20
2022-10-13T18:53:43.979Z,11.70
2022-10-13T18:56:14.588Z,12.97
2022-10-13T18:58:43.678Z,12.60
2022-10-13T19:01:13.815Z,14.03
2022-10-13T19:03:42.700Z,13.10
2022-10-13T19:06:12.034Z,14.20
2022-10-13T19:08:42.659Z,12.93
2022-10-13T19:11:14.300Z,13.40
2022-10-13T19:13:44.143Z,14.33
2022-10-13T19:16:12.784Z,14.27
2022-10-13T19:18:40.781Z,13.70
2022-10-13T19:21:08.628Z,13.03
2022-10-13T19:23:36.816Z,12.80
2022-10-13T19:26:14.024Z,13.43
2022-10-13T19:28:44.159Z,12.57
2022-10-13T19:31:13.196Z,13.33
2022-10-13T19:33:44.726Z,13.10
2022-10-13T19:36:20.515Z,13.23
2022-10-13T19:38:49.723Z,13.03
2022-10-13T19:41:17.617Z,12.83
2022-10-13T19:43:46.556Z,13.27
2022-10-13T19:46:14.155Z,14.27
2022-10-13T19:48:41.672Z,12.27
2022-10-13T19:51:10.238Z,12.97
2022-10-13T19:53:38.850Z,13.77
2022-10-13T19:56:07.805Z,12.13
2022-10-13T19:58:35.729Z,12.80
2022-10-13T20:01:06.748Z,14.63
2022-10-13T20:03:34.804Z,13.33
2022-10-13T20:06:05.209Z,12.17
2022-10-13T20:08:32.730Z,13.10
2022-10-13T20:11:00.894Z,12.63
2022-10-13T20:13:28.475Z,12.00
2022-10-13T20:16:07.718Z,12.67
2022-10-13T20:18:35.870Z,11.90
2022-10-13T20:21:04.473Z,12.97
2022-10-13T20:23:32.773Z,12.90
2022-10-13T20:26:02.854Z,12.23
2022-10-13T20:28:38.030Z,13.20
2022-10-13T20:31:12.711Z,12.80
2022-10-13T20:33:40.923Z,13.63
2022-10-13T20:36:11.701Z,14.13
2022-10-13T20:38:39.754Z,13.90
2022-10-13T20:41:08.319Z,14.17
2022-10-13T20:43:37.010Z,15.03
2022-10-13T20:46:06.904Z,14.83
2022-10-13T20:49:08.772Z,13.73
2022-10-13T20:51:27.847Z,14.23
2022-10-13T20:53:55.360Z,14.87
2022-10-13T20:56:25.135Z,13.83
2022-10-13T20:58:53.331Z,13.43
2022-10-13T21:01:23.383Z,13.53
2022-10-13T21:03:55.777Z,13.70
2022-10-13T21:06:25.400Z,13.83
2022-10-13T21:08:53.834Z,14.00
2022-10-13T21:11:24.182Z,14.10
2022-10-13T21:13:52.964Z,13.23
2022-10-13T21:16:22.970Z,13.47
2022-10-13T21:18:52.158Z,14.47
2022-10-13T21:21:23.042Z,14.27
2022-10-13T21:23:52.290Z,13.77
2022-10-13T21:26:24.230Z,14.00
2022-10-13T21:28:52.034Z,12.53
2022-10-13T21:31:21.626Z,14.43
2022-10-13T21:33:49.528Z,14.50
2022-10-13T21:36:19.960Z,14.47
2022-10-13T21:38:52.367Z,15.77
2022-10-13T21:41:20.258Z,16.17
2022-10-13T21:43:48.064Z,14.83
2022-10-13T21:46:18.097Z,15.07
2022-10-13T21:48:46.783Z,15.47
2022-10-13T21:51:15.772Z,15.17
2022-10-13T21:53:44.139Z,14.43
2022-10-13T21:56:12.941Z,16.23
2022-10-13T21:58:40.634Z,15.23
2022-10-13T22:01:08.867Z,16.93
2022-10-13T22:03:36.801Z,15.63
2022-10-13T22:06:06.473Z,16.70
2022-10-13T22:08:38.688Z,16.80
2022-10-13T22:11:20.428Z,16.67
2022-10-13T22:13:47.943Z,17.53
2022-10-13T22:16:17.845Z,15.57
2022-10-13T22:18:45.725Z,17.70
2022-10-13T22:21:15.903Z,18.27
2022-10-13T22:23:43.950Z,18.17
2022-10-13T22:26:12.280Z,19.33
2022-10-13T22:28:42.560Z,17.27
2022-10-13T22:31:12.442Z,16.87
2022-10-13T22:33:41.392Z,17.47
2022-10-13T22:36:10.032Z,16.83
2022-10-13T22:38:37.694Z,16.47
2022-10-13T22:41:08.835Z,16.40
2022-10-13T22:43:36.896Z,16.10
2022-10-13T22:46:16.140Z,15.87
2022-10-13T22:48:44.167Z,15.87
2022-10-13T22:51:13.039Z,16.80
2022-10-13T22:53:40.971Z,16.20
2022-10-13T22:56:10.493Z,16.63
2022-10-13T22:58:38.790Z,17.97
2022-10-13T23:01:08.589Z,16.23
2022-10-13T23:03:37.881Z,15.37
2022-10-13T23:06:06.741Z,15.40
2022-10-13T23:08:35.222Z,16.03
2022-10-13T23:11:02.789Z,16.00
2022-10-13T23:13:30.448Z,14.97
2022-10-13T23:16:02.008Z,16.90
2022-10-13T23:18:34.565Z,14.27
2022-10-13T23:21:06.868Z,15.83
2022-10-13T23:23:34.873Z,15.83
2022-10-13T23:26:03.947Z,15.33
2022-10-13T23:28:32.488Z,14.30
2022-10-13T23:31:03.139Z,16.53
2022-10-13T23:33:31.139Z,15.67
2022-10-13T23:36:01.081Z,15.90
2022-10-13T23:38:31.165Z,15.63
2022-10-13T23:41:03.191Z,14.57
2022-10-13T23:43:30.640Z,14.23
2022-10-13T23:45:58.119Z,14.67
2022-10-13T23:48:25.703Z,15.37
2022-10-13T23:50:53.272Z,14.47
2022-10-13T23:53:20.897Z,15.07
2022-10-13T23:55:49.823Z,13.90
2022-10-13T23:58:17.317Z,15.87
